sensor_id;sensor_type;location;lat;lon;timestamp;pressure;altitude;pressure_sealevel;temperature;humidity
22753;BME280;11543;43.144;24.684;2022-12-08T00:02:16;98794.03;;;8.13;91.90
22753;BME280;11543;43.144;24.684;2022-12-08T00:04:41;98784.19;;;8.04;92.01
22753;BME280;11543;43.144;24.684;2022-12-08T00:07:25;98799.94;;;8.07;92.21
22753;BME280;11543;43.144;24.684;2022-12-08T00:10:09;98799.09;;;8.07;91.68
22753;BME280;11543;43.144;24.684;2022-12-08T00:12:34;98797.41;;;8.06;91.17
22753;BME280;11543;43.144;24.684;2022-12-08T00:15:00;98790.09;;;7.98;91.38
22753;BME280;11543;43.144;24.684;2022-12-08T00:17:25;98814.84;;;8.00;91.23
22753;BME280;11543;43.144;24.684;2022-12-08T00:19:51;98812.56;;;7.95;91.08
22753;BME280;11543;43.144;24.684;2022-12-08T00:22:16;98795.56;;;7.87;90.90
22753;BME280;11543;43.144;24.684;2022-12-08T00:24:43;98815.66;;;7.91;90.92
22753;BME280;11543;43.144;24.684;2022-12-08T00:27:12;98831.97;;;7.97;90.26
22753;BME280;11543;43.144;24.684;2022-12-08T00:29:38;98822.97;;;7.89;89.14
22753;BME280;11543;43.144;24.684;2022-12-08T00:32:04;98843.22;;;7.91;89.57
22753;BME280;11543;43.144;24.684;2022-12-08T00:34:31;98820.41;;;7.78;89.82
22753;BME280;11543;43.144;24.684;2022-12-08T00:36:57;98814.63;;;7.73;90.11
22753;BME280;11543;43.144;24.684;2022-12-08T00:39:23;98834.72;;;7.77;90.58
22753;BME280;11543;43.144;24.684;2022-12-08T00:41:48;98830.84;;;7.81;90.46
22753;BME280;11543;43.144;24.684;2022-12-08T00:44:32;98837.53;;;7.75;90.55
22753;BME280;11543;43.144;24.684;2022-12-08T00:46:58;98833.31;;;7.73;90.59
22753;BME280;11543;43.144;24.684;2022-12-08T00:49:23;98837.25;;;7.68;90.80
22753;BME280;11543;43.144;24.684;2022-12-08T00:51:49;98857.22;;;7.74;90.93
22753;BME280;11543;43.144;24.684;2022-12-08T00:54:15;98828.09;;;7.61;90.79
22753;BME280;11543;43.144;24.684;2022-12-08T00:56:40;98835.84;;;7.64;90.79
22753;BME280;11543;43.144;24.684;2022-12-08T00:59:06;98848.19;;;7.65;90.67
22753;BME280;11543;43.144;24.684;2022-12-08T01:01:32;98837.50;;;7.56;90.87
22753;BME280;11543;43.144;24.684;2022-12-08T01:04:04;98842.88;;;7.65;91.43
22753;BME280;11543;43.144;24.684;2022-12-08T01:06:30;98834.84;;;7.65;91.19
22753;BME280;11543;43.144;24.684;2022-12-08T01:08:56;98806.84;;;7.50;91.21
22753;BME280;11543;43.144;24.684;2022-12-08T01:11:21;98826.25;;;7.52;91.59
22753;BME280;11543;43.144;24.684;2022-12-08T01:13:47;98798.97;;;7.39;91.87
22753;BME280;11543;43.144;24.684;2022-12-08T01:16:27;98834.41;;;7.51;91.78
22753;BME280;11543;43.144;24.684;2022-12-08T01:18:53;98839.97;;;7.38;91.77
22753;BME280;11543;43.144;24.684;2022-12-08T01:21:18;98830.72;;;7.42;92.22
22753;BME280;11543;43.144;24.684;2022-12-08T01:23:44;98819.06;;;7.43;92.00
22753;BME280;11543;43.144;24.684;2022-12-08T01:26:12;98821.44;;;7.46;91.67
22753;BME280;11543;43.144;24.684;2022-12-08T01:28:38;98831.84;;;7.49;92.00
22753;BME280;11543;43.144;24.684;2022-12-08T01:31:08;98811.31;;;7.40;91.80
22753;BME280;11543;43.144;24.684;2022-12-08T01:33:34;98814.44;;;7.45;92.18
22753;BME280;11543;43.144;24.684;2022-12-08T01:36:03;98826.69;;;7.57;92.45
22753;BME280;11543;43.144;24.684;2022-12-08T01:38:30;98819.25;;;7.61;92.24
22753;BME280;11543;43.144;24.684;2022-12-08T01:40:55;98816.44;;;7.62;92.17
22753;BME280;11543;43.144;24.684;2022-12-08T01:43:21;98801.28;;;7.73;92.27
22753;BME280;11543;43.144;24.684;2022-12-08T01:45:47;98797.94;;;7.90;92.35
22753;BME280;11543;43.144;24.684;2022-12-08T01:48:30;98807.81;;;8.09;92.11
22753;BME280;11543;43.144;24.684;2022-12-08T01:50:55;98810.06;;;8.13;92.06
22753;BME280;11543;43.144;24.684;2022-12-08T01:53:29;98793.31;;;8.21;92.08
22753;BME280;11543;43.144;24.684;2022-12-08T01:56:06;98792.31;;;8.31;91.66
22753;BME280;11543;43.144;24.684;2022-12-08T01:58:40;98783.31;;;8.32;91.38
22753;BME280;11543;43.144;24.684;2022-12-08T02:01:08;98786.72;;;8.35;91.36
22753;BME280;11543;43.144;24.684;2022-12-08T02:03:42;98781.09;;;8.38;90.74
22753;BME280;11543;43.144;24.684;2022-12-08T02:06:10;98783.63;;;8.39;90.51
22753;BME280;11543;43.144;24.684;2022-12-08T02:08:37;98783.59;;;8.49;90.47
22753;BME280;11543;43.144;24.684;2022-12-08T02:11:07;98787.53;;;8.54;90.17
22753;BME280;11543;43.144;24.684;2022-12-08T02:13:33;98770.38;;;8.57;89.87
22753;BME280;11543;43.144;24.684;2022-12-08T02:16:09;98774.88;;;8.56;89.78
22753;BME280;11543;43.144;24.684;2022-12-08T02:21:32;98784.16;;;8.52;89.26
22753;BME280;11543;43.144;24.684;2022-12-08T02:24:25;98784.88;;;8.54;88.99
22753;BME280;11543;43.144;24.684;2022-12-08T02:44:11;98780.53;;;8.44;87.76
22753;BME280;11543;43.144;24.684;2022-12-08T02:46:50;98771.53;;;8.35;88.06
22753;BME280;11543;43.144;24.684;2022-12-08T02:49:16;98780.66;;;8.32;87.92
22753;BME280;11543;43.144;24.684;2022-12-08T02:51:42;98774.06;;;8.17;87.97
22753;BME280;11543;43.144;24.684;2022-12-08T02:54:07;98776.84;;;8.25;88.25
22753;BME280;11543;43.144;24.684;2022-12-08T02:56:54;98770.25;;;8.29;88.69
22753;BME280;11543;43.144;24.684;2022-12-08T02:59:31;98768.44;;;8.40;88.82
22753;BME280;11543;43.144;24.684;2022-12-08T03:07:34;98781.34;;;8.54;88.19
22753;BME280;11543;43.144;24.684;2022-12-08T03:10:09;98781.91;;;8.48;87.79
22753;BME280;11543;43.144;24.684;2022-12-08T03:15:14;98791.19;;;8.53;88.09
22753;BME280;11543;43.144;24.684;2022-12-08T03:17:44;98777.16;;;8.42;87.95
22753;BME280;11543;43.144;24.684;2022-12-08T03:20:14;98797.13;;;8.47;87.92
22753;BME280;11543;43.144;24.684;2022-12-08T03:22:41;98787.84;;;8.42;87.85
22753;BME280;11543;43.144;24.684;2022-12-08T03:25:09;98797.38;;;8.54;87.89
22753;BME280;11543;43.144;24.684;2022-12-08T03:27:37;98793.44;;;8.58;87.60
22753;BME280;11543;43.144;24.684;2022-12-08T03:30:03;98807.22;;;8.63;87.46
22753;BME280;11543;43.144;24.684;2022-12-08T03:35:07;98806.69;;;8.50;87.69
22753;BME280;11543;43.144;24.684;2022-12-08T03:37:37;98805.28;;;8.36;87.71
22753;BME280;11543;43.144;24.684;2022-12-08T03:40:05;98806.13;;;8.37;88.14
22753;BME280;11543;43.144;24.684;2022-12-08T03:42:31;98803.03;;;8.41;87.99
22753;BME280;11543;43.144;24.684;2022-12-08T03:44:56;98775.19;;;8.34;88.14
22753;BME280;11543;43.144;24.684;2022-12-08T03:47:22;98794.88;;;8.43;87.96
22753;BME280;11543;43.144;24.684;2022-12-08T03:49:47;98792.91;;;8.45;87.85
22753;BME280;11543;43.144;24.684;2022-12-08T03:52:14;98801.34;;;8.50;87.79
22753;BME280;11543;43.144;24.684;2022-12-08T03:54:39;98793.59;;;8.47;87.50
22753;BME280;11543;43.144;24.684;2022-12-08T03:57:05;98805.13;;;8.47;87.31
22753;BME280;11543;43.144;24.684;2022-12-08T03:59:30;98806.69;;;8.50;87.47
22753;BME280;11543;43.144;24.684;2022-12-08T04:01:56;98799.78;;;8.47;87.32
22753;BME280;11543;43.144;24.684;2022-12-08T04:04:21;98804.72;;;8.52;87.30
22753;BME280;11543;43.144;24.684;2022-12-08T04:06:47;98813.72;;;8.51;86.92
22753;BME280;11543;43.144;24.684;2022-12-08T04:09:12;98788.13;;;8.39;86.99
22753;BME280;11543;43.144;24.684;2022-12-08T04:11:37;98792.31;;;8.31;86.78
22753;BME280;11543;43.144;24.684;2022-12-08T04:14:03;98787.97;;;8.30;86.88
22753;BME280;11543;43.144;24.684;2022-12-08T04:16:28;98799.09;;;8.36;86.97
22753;BME280;11543;43.144;24.684;2022-12-08T04:18:54;98807.53;;;8.41;87.14
22753;BME280;11543;43.144;24.684;2022-12-08T04:21:19;98799.66;;;8.39;87.31
22753;BME280;11543;43.144;24.684;2022-12-08T04:23:45;98801.91;;;8.44;87.49
22753;BME280;11543;43.144;24.684;2022-12-08T04:26:11;98794.31;;;8.49;87.22
22753;BME280;11543;43.144;24.684;2022-12-08T04:28:37;98800.22;;;8.52;87.15
22753;BME280;11543;43.144;24.684;2022-12-08T04:31:03;98809.22;;;8.51;86.96
22753;BME280;11543;43.144;24.684;2022-12-08T04:33:28;98806.69;;;8.50;86.79
22753;BME280;11543;43.144;24.684;2022-12-08T04:35:54;98814.84;;;8.58;86.98
22753;BME280;11543;43.144;24.684;2022-12-08T04:38:19;98807.50;;;8.60;86.84
22753;BME280;11543;43.144;24.684;2022-12-08T04:40:45;98804.53;;;8.63;86.63
22753;BME280;11543;43.144;24.684;2022-12-08T04:43:10;98808.91;;;8.64;86.68
22753;BME280;11543;43.144;24.684;2022-12-08T04:45:38;98814.25;;;8.64;86.53
22753;BME280;11543;43.144;24.684;2022-12-08T04:48:04;98819.59;;;8.64;86.42
22753;BME280;11543;43.144;24.684;2022-12-08T04:50:30;98824.13;;;8.63;86.45
22753;BME280;11543;43.144;24.684;2022-12-08T04:52:55;98820.06;;;8.69;86.15
22753;BME280;11543;43.144;24.684;2022-12-08T04:55:21;98829.75;;;8.70;86.00
22753;BME280;11543;43.144;24.684;2022-12-08T04:57:46;98816.53;;;8.69;86.14
22753;BME280;11543;43.144;24.684;2022-12-08T05:00:12;98793.44;;;8.68;86.15
22753;BME280;11543;43.144;24.684;2022-12-08T05:02:38;98811.75;;;8.72;85.88
22753;BME280;11543;43.144;24.684;2022-12-08T05:05:04;98815.41;;;8.71;85.79
22753;BME280;11543;43.144;24.684;2022-12-08T05:07:30;98814.00;;;8.67;85.74
22753;BME280;11543;43.144;24.684;2022-12-08T05:09:56;98816.78;;;8.66;85.63
22753;BME280;11543;43.144;24.684;2022-12-08T05:12:21;98822.16;;;8.75;85.64
22753;BME280;11543;43.144;24.684;2022-12-08T05:14:47;98828.06;;;8.69;85.50
22753;BME280;11543;43.144;24.684;2022-12-08T05:17:13;98815.69;;;8.68;85.59
22753;BME280;11543;43.144;24.684;2022-12-08T05:19:39;98813.72;;;8.70;85.16
22753;BME280;11543;43.144;24.684;2022-12-08T05:22:04;98801.88;;;8.63;85.19
22753;BME280;11543;43.144;24.684;2022-12-08T05:24:30;98829.47;;;8.73;85.00
22753;BME280;11543;43.144;24.684;2022-12-08T05:26:55;98828.06;;;8.69;84.87
22753;BME280;11543;43.144;24.684;2022-12-08T05:29:21;98835.66;;;8.64;85.05
22753;BME280;11543;43.144;24.684;2022-12-08T05:31:47;98836.78;;;8.52;85.25
22753;BME280;11543;43.144;24.684;2022-12-08T05:34:12;98826.97;;;8.43;85.57
22753;BME280;11543;43.144;24.684;2022-12-08T05:36:38;98845.94;;;8.49;85.60
22753;BME280;11543;43.144;24.684;2022-12-08T05:39:03;98830.31;;;8.45;85.90
22753;BME280;11543;43.144;24.684;2022-12-08T05:41:28;98838.34;;;8.45;85.69
22753;BME280;11543;43.144;24.684;2022-12-08T05:43:54;98846.66;;;8.42;85.95
22753;BME280;11543;43.144;24.684;2022-12-08T05:46:19;98848.22;;;8.35;86.06
22753;BME280;11543;43.144;24.684;2022-12-08T05:48:45;98858.16;;;8.32;86.12
22753;BME280;11543;43.144;24.684;2022-12-08T05:51:21;98866.19;;;8.32;86.21
22753;BME280;11543;43.144;24.684;2022-12-08T05:53:48;98864.06;;;8.26;86.01
22753;BME280;11543;43.144;24.684;2022-12-08T05:56:14;98867.03;;;8.23;86.51
22753;BME280;11543;43.144;24.684;2022-12-08T05:58:40;98866.88;;;8.25;86.59
22753;BME280;11543;43.144;24.684;2022-12-08T06:01:06;98858.16;;;8.32;86.85
22753;BME280;11543;43.144;24.684;2022-12-08T06:03:32;98862.69;;;8.42;86.96
22753;BME280;11543;43.144;24.684;2022-12-08T06:05:57;98863.69;;;8.41;86.85
22753;BME280;11543;43.144;24.684;2022-12-08T06:08:23;98854.25;;;8.37;86.68
22753;BME280;11543;43.144;24.684;2022-12-08T06:10:49;98865.50;;;8.40;86.75
22753;BME280;11543;43.144;24.684;2022-12-08T06:13:14;98859.31;;;8.40;86.70
22753;BME280;11543;43.144;24.684;2022-12-08T06:15:41;98861.28;;;8.38;86.41
22753;BME280;11543;43.144;24.684;2022-12-08T06:18:07;98866.34;;;8.41;86.65
22753;BME280;11543;43.144;24.684;2022-12-08T06:20:33;98867.47;;;8.48;86.32
22753;BME280;11543;43.144;24.684;2022-12-08T06:23:00;98860.84;;;8.52;86.31
22753;BME280;11543;43.144;24.684;2022-12-08T06:25:27;98844.41;;;8.47;86.21
22753;BME280;11543;43.144;24.684;2022-12-08T06:27:53;98861.56;;;8.54;86.12
22753;BME280;11543;43.144;24.684;2022-12-08T06:30:19;98861.00;;;8.60;85.98
22753;BME280;11543;43.144;24.684;2022-12-08T06:32:44;98855.38;;;8.63;85.79
22753;BME280;11543;43.144;24.684;2022-12-08T06:35:11;98861.28;;;8.67;85.66
22753;BME280;11543;43.144;24.684;2022-12-08T06:37:36;98857.34;;;8.61;85.57
22753;BME280;11543;43.144;24.684;2022-12-08T06:40:02;98859.88;;;8.62;85.53
22753;BME280;11543;43.144;24.684;2022-12-08T06:42:28;98850.84;;;8.63;85.48
22753;BME280;11543;43.144;24.684;2022-12-08T06:45:14;98861.00;;;8.60;85.51
22753;BME280;11543;43.144;24.684;2022-12-08T06:47:41;98857.63;;;8.58;85.22
22753;BME280;11543;43.144;24.684;2022-12-08T06:50:08;98847.50;;;8.52;85.54
22753;BME280;11543;43.144;24.684;2022-12-08T06:52:34;98855.66;;;8.60;85.46
22753;BME280;11543;43.144;24.684;2022-12-08T06:55:00;98854.53;;;8.53;85.43
22753;BME280;11543;43.144;24.684;2022-12-08T06:57:25;98854.94;;;8.58;85.43
22753;BME280;11543;43.144;24.684;2022-12-08T06:59:51;98862.41;;;8.64;85.22
22753;BME280;11543;43.144;24.684;2022-12-08T07:02:16;98868.59;;;8.74;85.02
22753;BME280;11543;43.144;24.684;2022-12-08T07:04:42;98872.53;;;8.80;84.69
22753;BME280;11543;43.144;24.684;2022-12-08T07:07:08;98872.25;;;8.83;84.47
22753;BME280;11543;43.144;24.684;2022-12-08T07:09:33;98840.44;;;8.80;83.88
22753;BME280;11543;43.144;24.684;2022-12-08T07:11:58;98857.47;;;8.88;83.87
22753;BME280;11543;43.144;24.684;2022-12-08T07:14:24;98856.22;;;8.83;83.78
22753;BME280;11543;43.144;24.684;2022-12-08T07:16:50;98848.03;;;8.84;83.60
22753;BME280;11543;43.144;24.684;2022-12-08T07:19:16;98851.69;;;8.83;83.41
22753;BME280;11543;43.144;24.684;2022-12-08T07:21:41;98859.56;;;8.94;83.42
22753;BME280;11543;43.144;24.684;2022-12-08T07:24:07;98863.22;;;8.93;83.21
22753;BME280;11543;43.144;24.684;2022-12-08T07:26:33;98859.16;;;8.89;82.91
22753;BME280;11543;43.144;24.684;2022-12-08T07:28:59;98871.94;;;8.96;83.13
22753;BME280;11543;43.144;24.684;2022-12-08T07:31:25;98862.94;;;8.97;83.00
22753;BME280;11543;43.144;24.684;2022-12-08T07:33:51;98852.53;;;8.93;83.01
22753;BME280;11543;43.144;24.684;2022-12-08T07:36:17;98855.31;;;9.02;82.81
22753;BME280;11543;43.144;24.684;2022-12-08T07:38:42;98855.31;;;9.02;82.81
22753;BME280;11543;43.144;24.684;2022-12-08T07:41:12;98845.16;;;9.05;83.01
22753;BME280;11543;43.144;24.684;2022-12-08T07:43:37;98843.75;;;9.11;82.76
22753;BME280;11543;43.144;24.684;2022-12-08T07:46:03;98847.81;;;9.15;83.00
22753;BME280;11543;43.144;24.684;2022-12-08T07:48:28;98846.81;;;9.16;82.93
22753;BME280;11543;43.144;24.684;2022-12-08T07:51:02;98852.44;;;9.22;82.99
22753;BME280;11543;43.144;24.684;2022-12-08T07:53:28;98841.72;;;9.22;82.63
22753;BME280;11543;43.144;24.684;2022-12-08T07:55:53;98832.16;;;9.20;82.74
22753;BME280;11543;43.144;24.684;2022-12-08T07:58:19;98849.41;;;9.35;82.55
22753;BME280;11543;43.144;24.684;2022-12-08T08:00:44;98857.44;;;9.35;82.62
22753;BME280;11543;43.144;24.684;2022-12-08T08:03:10;98869.00;;;9.36;82.05
22753;BME280;11543;43.144;24.684;2022-12-08T08:05:35;98883.38;;;9.35;82.48
22753;BME280;11543;43.144;24.684;2022-12-08T08:08:01;98891.72;;;9.32;82.73
22753;BME280;11543;43.144;24.684;2022-12-08T08:10:26;98883.38;;;9.35;82.84
22753;BME280;11543;43.144;24.684;2022-12-08T08:12:52;98887.50;;;9.29;82.84
22753;BME280;11543;43.144;24.684;2022-12-08T08:15:17;98885.66;;;9.30;83.09
22753;BME280;11543;43.144;24.684;2022-12-08T08:17:48;98864.56;;;9.17;83.22
22753;BME280;11543;43.144;24.684;2022-12-08T08:20:13;98884.66;;;9.31;83.38
22753;BME280;11543;43.144;24.684;2022-12-08T08:22:39;98889.59;;;9.35;83.83
22753;BME280;11543;43.144;24.684;2022-12-08T08:25:04;98880.28;;;9.39;83.54
22753;BME280;11543;43.144;24.684;2022-12-08T08:27:30;98873.72;;;9.51;83.94
22753;BME280;11543;43.144;24.684;2022-12-08T08:29:55;98850.31;;;9.53;84.15
22753;BME280;11543;43.144;24.684;2022-12-08T08:32:21;98827.72;;;9.38;83.79
22753;BME280;11543;43.144;24.684;2022-12-08T08:34:46;98860.88;;;9.65;83.61
22753;BME280;11543;43.144;24.684;2022-12-08T08:37:11;98859.59;;;9.69;84.03
22753;BME280;11543;43.144;24.684;2022-12-08T08:39:37;98854.22;;;9.69;83.88
22753;BME280;11543;43.144;24.684;2022-12-08T08:42:02;98847.47;;;9.65;83.99
22753;BME280;11543;43.144;24.684;2022-12-08T08:44:28;98867.97;;;9.83;83.75
22753;BME280;11543;43.144;24.684;2022-12-08T08:46:53;98864.06;;;9.96;84.03
22753;BME280;11543;43.144;24.684;2022-12-08T08:49:19;98844.47;;;9.95;84.00
22753;BME280;11543;43.144;24.684;2022-12-08T08:51:45;98854.28;;;10.04;83.92
22753;BME280;11543;43.144;24.684;2022-12-08T08:54:10;98863.72;;;10.08;83.65
22753;BME280;11543;43.144;24.684;2022-12-08T08:56:36;98853.28;;;10.05;83.19
22753;BME280;11543;43.144;24.684;2022-12-08T08:59:01;98846.69;;;10.00;83.23
22753;BME280;11543;43.144;24.684;2022-12-08T09:01:28;98843.03;;;10.01;83.56
22753;BME280;11543;43.144;24.684;2022-12-08T09:03:54;98838.22;;;10.04;83.27
22753;BME280;11543;43.144;24.684;2022-12-08T09:06:21;98836.91;;;10.08;81.28
22753;BME280;11543;43.144;24.684;2022-12-08T09:08:47;98850.91;;;10.02;80.75
22753;BME280;11543;43.144;24.684;2022-12-08T09:11:12;98847.47;;;9.92;81.03
22753;BME280;11543;43.144;24.684;2022-12-08T09:13:38;98833.03;;;9.75;81.38
22753;BME280;11543;43.144;24.684;2022-12-08T09:16:06;98839.25;;;9.76;81.86
22753;BME280;11543;43.144;24.684;2022-12-08T09:18:32;98827.13;;;9.72;81.73
22753;BME280;11543;43.144;24.684;2022-12-08T09:21:09;98829.13;;;9.70;81.91
22753;BME280;11543;43.144;24.684;2022-12-08T09:23:37;98831.94;;;9.68;82.11
22753;BME280;11543;43.144;24.684;2022-12-08T09:26:03;98829.72;;;9.64;81.87
22753;BME280;11543;43.144;24.684;2022-12-08T09:28:29;98833.41;;;9.63;82.25
22753;BME280;11543;43.144;24.684;2022-12-08T09:30:55;98831.72;;;9.62;82.48
22753;BME280;11543;43.144;24.684;2022-12-08T09:33:20;98821.53;;;9.65;82.84
22753;BME280;11543;43.144;24.684;2022-12-08T09:35:46;98813.66;;;9.64;83.11
22753;BME280;11543;43.144;24.684;2022-12-08T09:38:11;98824.06;;;9.67;82.84
22753;BME280;11543;43.144;24.684;2022-12-08T09:40:45;98821.78;;;9.72;82.88
22753;BME280;11543;43.144;24.684;2022-12-08T09:45:55;98837.25;;;9.78;82.78
22753;BME280;11543;43.144;24.684;2022-12-08T09:48:34;98827.06;;;9.81;83.13
22753;BME280;11543;43.144;24.684;2022-12-08T09:51:02;98825.03;;;9.93;83.36
22753;BME280;11543;43.144;24.684;2022-12-08T09:53:41;98815.69;;;9.97;83.42
22753;BME280;11543;43.144;24.684;2022-12-08T09:56:17;98832.53;;;10.07;83.51
22753;BME280;11543;43.144;24.684;2022-12-08T09:58:57;98835.59;;;10.12;83.86
22753;BME280;11543;43.144;24.684;2022-12-08T10:01:32;98833.03;;;10.20;84.01
22753;BME280;11543;43.144;24.684;2022-12-08T10:03:59;98826.53;;;10.23;83.68
22753;BME280;11543;43.144;24.684;2022-12-08T10:12:26;98800.25;;;10.27;82.44
22753;BME280;11543;43.144;24.684;2022-12-08T10:17:35;98788.16;;;10.23;81.93
22753;BME280;11543;43.144;24.684;2022-12-08T10:20:15;98795.41;;;10.30;81.79
22753;BME280;11543;43.144;24.684;2022-12-08T10:22:41;98790.97;;;10.21;81.66
22753;BME280;11543;43.144;24.684;2022-12-08T10:25:30;98798.88;;;10.23;82.23
22753;BME280;11543;43.144;24.684;2022-12-08T10:27:59;98786.34;;;10.13;81.72
22753;BME280;11543;43.144;24.684;2022-12-08T10:30:25;98797.47;;;10.18;81.24
22753;BME280;11543;43.144;24.684;2022-12-08T10:32:52;98792.09;;;10.18;81.27
22753;BME280;11543;43.144;24.684;2022-12-08T10:35:20;98783.97;;;10.10;81.81
22753;BME280;11543;43.144;24.684;2022-12-08T10:37:57;98782.91;;;10.03;82.40
22753;BME280;11543;43.144;24.684;2022-12-08T10:40:24;98795.00;;;10.07;82.64
22753;BME280;11543;43.144;24.684;2022-12-08T10:42:53;98799.91;;;10.12;83.10
22753;BME280;11543;43.144;24.684;2022-12-08T10:45:35;98801.28;;;10.16;83.45
22753;BME280;11543;43.144;24.684;2022-12-08T10:48:18;98788.16;;;10.23;83.44
22753;BME280;11543;43.144;24.684;2022-12-08T10:50:46;98782.16;;;10.29;83.68
22753;BME280;11543;43.144;24.684;2022-12-08T10:55:52;98779.25;;;10.40;84.14
22753;BME280;11543;43.144;24.684;2022-12-08T10:58:38;98780.72;;;10.52;84.01
22753;BME280;11543;43.144;24.684;2022-12-08T11:01:10;98786.44;;;10.57;84.01
22753;BME280;11543;43.144;24.684;2022-12-08T11:06:19;98780.50;;;10.71;83.74
22753;BME280;11543;43.144;24.684;2022-12-08T11:08:50;98773.13;;;10.73;83.86
22753;BME280;11543;43.144;24.684;2022-12-08T11:11:17;98768.13;;;10.78;84.07
22753;BME280;11543;43.144;24.684;2022-12-08T11:13:43;98761.19;;;10.94;83.72
22753;BME280;11543;43.144;24.684;2022-12-08T11:16:12;98769.59;;;10.99;83.52
22753;BME280;11543;43.144;24.684;2022-12-08T11:18:44;98764.72;;;10.94;83.94
22753;BME280;11543;43.144;24.684;2022-12-08T11:21:17;98758.84;;;10.99;83.65
22753;BME280;11543;43.144;24.684;2022-12-08T11:23:47;98753.16;;;11.02;83.51
22753;BME280;11543;43.144;24.684;2022-12-08T11:26:19;98763.91;;;11.02;83.71
22753;BME280;11543;43.144;24.684;2022-12-08T11:28:45;98768.97;;;11.05;83.21
22753;BME280;11543;43.144;24.684;2022-12-08T11:31:28;98773.31;;;11.06;82.44
22753;BME280;11543;43.144;24.684;2022-12-08T11:33:55;98767.59;;;11.01;81.63
22753;BME280;11543;43.144;24.684;2022-12-08T11:36:22;98768.75;;;10.98;81.56
22753;BME280;11543;43.144;24.684;2022-12-08T11:38:54;98756.66;;;10.94;80.73
22753;BME280;11543;43.144;24.684;2022-12-08T11:41:24;98748.75;;;10.93;81.03
22753;BME280;11543;43.144;24.684;2022-12-08T11:44:00;98752.78;;;10.89;81.05
22753;BME280;11543;43.144;24.684;2022-12-08T11:46:45;98754.41;;;10.81;81.24
22753;BME280;11543;43.144;24.684;2022-12-08T11:49:13;98749.31;;;10.70;81.49
22753;BME280;11543;43.144;24.684;2022-12-08T11:51:45;98751.00;;;10.71;81.65
22753;BME280;11543;43.144;24.684;2022-12-08T11:54:28;98731.00;;;10.66;81.94
22753;BME280;11543;43.144;24.684;2022-12-08T11:56:56;98746.16;;;10.75;82.32
22753;BME280;11543;43.144;24.684;2022-12-08T12:01:50;98735.63;;;10.81;82.46
22753;BME280;11543;43.144;24.684;2022-12-08T12:04:32;98728.38;;;10.74;82.81
22753;BME280;11543;43.144;24.684;2022-12-08T12:19:58;98725.81;;;10.98;83.18
22753;BME280;11543;43.144;24.684;2022-12-08T12:22:32;98725.81;;;10.98;83.13
22753;BME280;11543;43.144;24.684;2022-12-08T12:24:59;98726.00;;;11.05;83.05
22753;BME280;11543;43.144;24.684;2022-12-08T12:27:37;98709.22;;;11.03;83.09
22753;BME280;11543;43.144;24.684;2022-12-08T12:30:07;98724.22;;;11.22;82.53
22753;BME280;11543;43.144;24.684;2022-12-08T12:33:05;98718.38;;;11.26;82.37
22753;BME280;11543;43.144;24.684;2022-12-08T12:35:40;98708.94;;;11.14;82.34
22753;BME280;11543;43.144;24.684;2022-12-08T12:38:19;98710.28;;;11.18;82.74
22753;BME280;11543;43.144;24.684;2022-12-08T12:41:05;98691.78;;;11.07;82.18
22753;BME280;11543;43.144;24.684;2022-12-08T12:43:36;98691.47;;;11.10;82.17
22753;BME280;11543;43.144;24.684;2022-12-08T12:54:44;98686.34;;;10.91;81.85
22753;BME280;11543;43.144;24.684;2022-12-08T12:57:24;98689.53;;;10.86;82.10
22753;BME280;11543;43.144;24.684;2022-12-08T13:02:37;98692.81;;;10.72;81.61
22753;BME280;11543;43.144;24.684;2022-12-08T13:05:09;98699.81;;;10.65;81.71
22753;BME280;11543;43.144;24.684;2022-12-08T13:08:02;98694.59;;;10.63;82.47
22753;BME280;11543;43.144;24.684;2022-12-08T13:10:35;98695.44;;;10.64;82.68
22753;BME280;11543;43.144;24.684;2022-12-08T13:18:04;98688.19;;;10.56;82.75
22753;BME280;11543;43.144;24.684;2022-12-08T13:20:40;98692.66;;;10.47;82.88
22753;BME280;11543;43.144;24.684;2022-12-08T13:23:26;98687.09;;;10.41;83.14
22753;BME280;11543;43.144;24.684;2022-12-08T13:26:08;98693.13;;;10.43;83.44
22753;BME280;11543;43.144;24.684;2022-12-08T13:31:42;98689.91;;;10.39;83.60
22753;BME280;11543;43.144;24.684;2022-12-08T13:36:42;98695.00;;;10.25;83.36
22753;BME280;11543;43.144;24.684;2022-12-08T13:39:20;98686.94;;;10.25;83.43
22753;BME280;11543;43.144;24.684;2022-12-08T13:42:16;98699.72;;;10.31;83.79
22753;BME280;11543;43.144;24.684;2022-12-08T13:44:47;98701.41;;;10.32;83.88
22753;BME280;11543;43.144;24.684;2022-12-08T13:47:19;98699.19;;;10.27;83.81
22753;BME280;11543;43.144;24.684;2022-12-08T13:49:58;98680.97;;;10.13;83.89
22753;BME280;11543;43.144;24.684;2022-12-08T13:52:35;98705.56;;;10.08;83.83
22753;BME280;11543;43.144;24.684;2022-12-08T13:55:02;98701.44;;;9.96;83.63
22753;BME280;11543;43.144;24.684;2022-12-08T13:57:32;98696.16;;;9.86;83.40
22753;BME280;11543;43.144;24.684;2022-12-08T14:00:20;98708.88;;;9.84;83.36
22753;BME280;11543;43.144;24.684;2022-12-08T14:02:47;98709.25;;;9.72;83.40
22753;BME280;11543;43.144;24.684;2022-12-08T14:05:13;98708.81;;;9.58;83.89
22753;BME280;11543;43.144;24.684;2022-12-08T14:07:40;98725.72;;;9.59;84.42
22753;BME280;11543;43.144;24.684;2022-12-08T14:10:09;98719.81;;;9.55;84.42
22753;BME280;11543;43.144;24.684;2022-12-08T14:12:38;98722.78;;;9.52;84.01
22753;BME280;11543;43.144;24.684;2022-12-08T14:15:06;98700.41;;;9.44;84.57
22753;BME280;11543;43.144;24.684;2022-12-08T14:17:32;98704.25;;;9.41;84.89
22753;BME280;11543;43.144;24.684;2022-12-08T14:20:04;98705.94;;;9.42;85.12
22753;BME280;11543;43.144;24.684;2022-12-08T14:22:36;98693.13;;;9.36;85.43
22753;BME280;11543;43.144;24.684;2022-12-08T14:25:03;98697.59;;;9.45;85.52
22753;BME280;11543;43.144;24.684;2022-12-08T14:27:34;98702.63;;;9.48;85.51
22753;BME280;11543;43.144;24.684;2022-12-08T14:30:07;98694.22;;;9.43;85.30
22753;BME280;11543;43.144;24.684;2022-12-08T14:32:43;98690.06;;;9.31;85.52